createdAt,value
2018-06-18T00:02:40.995Z,88.20
2018-06-18T00:06:45.380Z,88.70
2018-06-18T00:10:49.694Z,87.90
2018-06-18T00:14:53.931Z,89.80
2018-06-18T00:18:58.151Z,90.00
2018-06-18T00:23:02.474Z,90.10
2018-06-18T00:27:06.731Z,90.80
2018-06-18T00:31:10.999Z,90.70
2018-06-18T00:39:19.123Z,90.70
2018-06-18T00:43:24.650Z,91.00
2018-06-18T00:47:28.870Z,91.10
2018-06-18T00:51:33.373Z,90.50
2018-06-18T00:55:48.651Z,90.80
2018-06-18T00:59:52.852Z,90.40
2018-06-18T01:03:57.207Z,89.60
2018-06-18T01:08:01.419Z,89.90
2018-06-18T01:12:05.812Z,88.40
2018-06-18T01:16:10.109Z,88.00
2018-06-18T01:20:14.558Z,79.30
2018-06-18T01:24:45.348Z,72.70
2018-06-18T01:28:49.675Z,67.70
2018-06-18T01:32:53.900Z,66.30
2018-06-18T01:36:58.238Z,66.00
2018-06-18T01:41:02.484Z,65.70
2018-06-18T01:45:06.850Z,66.80
2018-06-18T01:49:11.109Z,67.30
2018-06-18T01:53:15.467Z,66.30
2018-06-18T01:57:19.689Z,62.80
2018-06-18T02:01:23.988Z,63.80
2018-06-18T02:05:28.332Z,65.10
2018-06-18T02:09:32.568Z,64.90
2018-06-18T02:13:36.913Z,64.10
2018-06-18T02:17:41.401Z,60.00
2018-06-18T02:21:45.761Z,58.40
2018-06-18T02:25:49.978Z,58.90
2018-06-18T02:29:59.278Z,57.70
2018-06-18T02:34:08.905Z,58.30
2018-06-18T02:38:18.441Z,57.80
2018-06-18T02:42:22.680Z,57.80
2018-06-18T02:46:26.983Z,59.10
2018-06-18T02:50:31.179Z,59.90
2018-06-18T02:54:35.476Z,59.80
2018-06-18T02:58:39.761Z,60.70
2018-06-18T03:02:44.119Z,60.50
2018-06-18T03:06:48.380Z,60.50
2018-06-18T03:10:52.915Z,62.90
2018-06-18T03:14:57.134Z,62.20
2018-06-18T03:19:06.719Z,62.30
2018-06-18T03:23:16.180Z,61.80
2018-06-18T03:27:25.699Z,63.40
2018-06-18T03:31:29.944Z,63.30
2018-06-18T03:35:34.440Z,63.90
2018-06-18T03:39:38.672Z,67.60
2018-06-18T03:43:47.566Z,67.60
2018-06-18T03:47:51.898Z,69.90
2018-06-18T03:51:56.257Z,70.60
2018-06-18T03:56:01.458Z,72.70
2018-06-18T04:04:18.878Z,74.00
2018-06-18T04:08:23.172Z,74.80
2018-06-18T04:12:27.574Z,77.80
2018-06-18T04:16:31.775Z,72.10
2018-06-18T04:20:40.571Z,75.40
2018-06-18T04:24:45.035Z,74.80
2018-06-18T04:28:49.866Z,74.00
2018-06-18T04:32:55.154Z,66.30
2018-06-18T04:36:59.901Z,64.90
2018-06-18T04:41:04.237Z,62.20
2018-06-18T04:45:13.663Z,64.10
2018-06-18T04:50:26.988Z,59.40
2018-06-18T04:54:31.196Z,58.60
2018-06-18T04:58:35.584Z,60.20
2018-06-18T05:02:39.854Z,58.80
2018-06-18T05:06:44.220Z,61.30
2018-06-18T05:10:48.427Z,58.20
2018-06-18T05:14:53.165Z,59.20
2018-06-18T05:18:57.393Z,58.40
2018-06-18T05:23:01.744Z,60.10
2018-06-18T05:27:07.518Z,60.60
2018-06-18T05:31:11.731Z,57.70
2018-06-18T05:35:16.392Z,58.20
2018-06-18T05:39:20.646Z,53.60
2018-06-18T05:43:24.881Z,58.40
2018-06-18T05:47:29.228Z,60.50
2018-06-18T05:51:33.442Z,55.20
2018-06-18T05:55:38.094Z,56.80
2018-06-18T05:59:42.714Z,59.70
2018-06-18T06:03:47.154Z,55.20
2018-06-18T06:07:51.613Z,55.40
2018-06-18T06:11:55.936Z,56.10
2018-06-18T06:16:00.776Z,57.00
2018-06-18T06:20:05.451Z,56.50
2018-06-18T06:24:09.651Z,53.90
2018-06-18T06:28:14.180Z,53.60
2018-06-18T06:32:18.453Z,51.10
2018-06-18T06:36:25.517Z,59.40
2018-06-18T06:40:29.736Z,50.70
2018-06-18T06:44:34.157Z,51.50
2018-06-18T06:48:39.013Z,58.80
2018-06-18T06:52:43.314Z,50.80
2018-06-18T06:56:47.860Z,54.80
2018-06-18T07:00:52.047Z,51.30
2018-06-18T07:04:56.656Z,56.20
2018-06-18T07:09:01.422Z,54.70
2018-06-18T07:13:06.120Z,50.80
2018-06-18T07:17:10.407Z,54.10
2018-06-18T07:21:14.860Z,50.20
2018-06-18T07:25:19.435Z,51.00
2018-06-18T07:29:23.713Z,51.50
2018-06-18T07:33:28.190Z,52.40
2018-06-18T07:37:32.506Z,48.60
2018-06-18T07:41:36.931Z,49.40
2018-06-18T07:45:41.428Z,51.20
2018-06-18T07:49:45.769Z,51.30
2018-06-18T07:53:50.497Z,50.60
2018-06-18T07:57:55.055Z,48.70
2018-06-18T08:01:59.869Z,51.70
2018-06-18T08:06:04.462Z,47.40
2018-06-18T08:10:08.751Z,48.20
2018-06-18T08:14:13.082Z,47.10
2018-06-18T08:18:17.379Z,53.10
2018-06-18T08:22:21.909Z,48.10
2018-06-18T08:26:26.171Z,46.20
2018-06-18T08:30:30.844Z,49.60
2018-06-18T08:34:35.079Z,49.00
2018-06-18T08:38:39.291Z,46.20
2018-06-18T08:42:43.484Z,48.10
2018-06-18T08:46:47.849Z,49.80
2018-06-18T08:50:57.887Z,45.40
2018-06-18T08:55:07.346Z,44.60
2018-06-18T08:59:17.181Z,44.80
2018-06-18T09:03:24.159Z,44.50
2018-06-18T09:07:32.037Z,45.70
2018-06-18T09:11:36.899Z,48.60
2018-06-18T09:15:41.265Z,50.80
2018-06-18T09:19:45.581Z,47.20
2018-06-18T09:23:50.099Z,46.30
2018-06-18T09:27:54.967Z,42.00
2018-06-18T09:31:59.321Z,42.40
2018-06-18T09:36:03.964Z,37.40
2018-06-18T09:40:08.285Z,37.80
2018-06-18T09:44:12.678Z,39.50
2018-06-18T09:48:17.006Z,37.70
2018-06-18T09:56:35.737Z,35.50
2018-06-18T10:00:55.179Z,37.50
2018-06-18T10:05:00.539Z,34.00
2018-06-18T10:09:07.422Z,36.20
2018-06-18T10:13:11.881Z,35.20
2018-06-18T10:17:16.442Z,37.60
2018-06-18T10:21:20.719Z,37.30
2018-06-18T10:25:25.074Z,37.70
2018-06-18T10:29:29.405Z,34.70
2018-06-18T10:33:38.862Z,33.90
2018-06-18T10:37:48.516Z,32.80
2018-06-18T10:41:58.053Z,31.70
2018-06-18T10:46:02.507Z,32.60
2018-06-18T10:50:06.745Z,30.40
2018-06-18T10:54:11.312Z,32.40
2018-06-18T10:58:15.805Z,29.40
2018-06-18T11:02:20.279Z,29.60
2018-06-18T11:06:32.890Z,28.40
2018-06-18T11:10:38.895Z,30.10
2018-06-18T11:14:43.423Z,28.20
2018-06-18T11:18:53.292Z,27.10
2018-06-18T11:23:02.915Z,28.30
2018-06-18T11:31:11.539Z,25.00
2018-06-18T11:35:17.292Z,28.50
2018-06-18T11:39:21.643Z,28.40
2018-06-18T11:43:26.275Z,27.80
2018-06-18T11:47:31.116Z,25.60
2018-06-18T11:51:35.702Z,27.10
2018-06-18T11:59:49.579Z,25.70
2018-06-18T12:08:09.293Z,24.10
2018-06-18T12:12:14.056Z,25.40
2018-06-18T12:16:23.892Z,25.40
2018-06-18T12:20:28.283Z,22.70
2018-06-18T12:24:32.970Z,22.40
2018-06-18T12:32:49.328Z,22.80
2018-06-18T12:36:55.230Z,25.30
2018-06-18T12:40:59.843Z,23.10
2018-06-18T12:45:09.538Z,22.20
2018-06-18T12:49:20.362Z,24.70
2018-06-18T12:54:31.345Z,22.90
2018-06-18T12:58:36.203Z,21.30
2018-06-18T13:02:44.880Z,21.60
2018-06-18T13:06:49.162Z,22.70
2018-06-18T13:10:53.424Z,23.00
2018-06-18T13:14:57.708Z,22.30
2018-06-18T13:19:02.428Z,21.50
2018-06-18T13:23:07.498Z,21.50
2018-06-18T13:27:12.502Z,23.00
2018-06-18T13:31:18.974Z,21.40
2018-06-18T13:35:25.171Z,21.70
2018-06-18T13:39:34.699Z,21.30
2018-06-18T13:43:44.904Z,21.30
2018-06-18T13:47:54.608Z,21.70
2018-06-18T13:51:58.946Z,22.00
2018-06-18T13:56:03.673Z,21.00
2018-06-18T14:00:09.324Z,21.30
2018-06-18T14:04:14.100Z,18.60
2018-06-18T14:08:18.572Z,20.70
2018-06-18T14:12:23.077Z,20.50
2018-06-18T14:16:27.832Z,19.20
2018-06-18T14:20:32.736Z,20.10
2018-06-18T14:24:37.339Z,20.20
2018-06-18T14:28:41.616Z,18.20
2018-06-18T14:32:51.445Z,18.50
2018-06-18T14:37:01.192Z,18.30
2018-06-18T14:41:05.625Z,19.00
2018-06-18T14:45:10.640Z,19.40
2018-06-18T14:49:15.463Z,18.50
2018-06-18T14:53:20.068Z,18.80
2018-06-18T14:57:24.724Z,18.10
2018-06-18T15:01:29.202Z,18.90
2018-06-18T15:05:35.646Z,19.40
2018-06-18T15:09:40.096Z,19.20
2018-06-18T15:13:44.937Z,20.50
2018-06-18T15:21:57.074Z,19.60
2018-06-18T15:26:01.833Z,20.20
2018-06-18T15:30:06.370Z,21.50
2018-06-18T15:34:10.989Z,22.40
2018-06-18T15:38:15.531Z,23.40
2018-06-18T15:42:20.273Z,22.60
2018-06-18T15:46:25.074Z,24.10
2018-06-18T15:54:35.137Z,24.40
2018-06-18T15:58:39.465Z,22.90
2018-06-18T16:02:44.273Z,23.50
2018-06-18T16:06:48.809Z,23.00
2018-06-18T16:10:53.279Z,23.10
2018-06-18T16:14:57.838Z,26.50
2018-06-18T16:19:02.146Z,26.30
2018-06-18T16:23:07.216Z,29.00
2018-06-18T16:27:11.501Z,33.10
2018-06-18T16:31:16.994Z,32.90
2018-06-18T16:35:21.394Z,34.60
2018-06-18T16:39:25.816Z,34.30
2018-06-18T16:43:30.148Z,34.80
2018-06-18T16:47:34.515Z,36.80
2018-06-18T16:51:39.259Z,37.70
2018-06-18T16:55:43.607Z,38.00
2018-06-18T16:59:48.201Z,41.20
2018-06-18T17:03:53.623Z,38.00
2018-06-18T17:07:57.981Z,39.00
2018-06-18T17:12:03.009Z,37.70
2018-06-18T17:16:07.522Z,37.50
2018-06-18T17:20:12.841Z,39.30
2018-06-18T17:24:17.477Z,38.60
2018-06-18T17:28:22.552Z,41.60
2018-06-18T17:32:28.157Z,44.80
2018-06-18T17:36:32.526Z,40.10
2018-06-18T17:40:37.923Z,39.70
2018-06-18T17:44:42.698Z,45.10
2018-06-18T17:48:47.368Z,41.90
2018-06-18T17:52:52.116Z,41.60
2018-06-18T17:56:57.436Z,44.90
2018-06-18T18:01:01.787Z,44.30
2018-06-18T18:05:07.777Z,46.10
2018-06-18T18:09:13.768Z,44.30
2018-06-18T18:13:19.304Z,47.80
2018-06-18T18:17:25.476Z,48.80
2018-06-18T18:21:31.094Z,51.10
2018-06-18T18:25:35.900Z,45.30
2018-06-18T18:29:40.733Z,49.50
2018-06-18T18:33:47.082Z,45.10
2018-06-18T18:37:51.792Z,46.70
2018-06-18T18:41:58.365Z,45.00
2018-06-18T18:46:03.263Z,45.70
2018-06-18T18:50:09.813Z,46.10
2018-06-18T18:54:31.058Z,44.90
2018-06-18T18:59:42.540Z,46.60
2018-06-18T19:03:49.631Z,50.20
2018-06-18T19:07:54.426Z,52.40
2018-06-18T19:12:00.305Z,53.50
2018-06-18T19:16:04.961Z,54.40
2018-06-18T19:20:13.994Z,51.80
2018-06-18T19:24:19.526Z,56.20
2018-06-18T19:28:24.146Z,57.30
2018-06-18T19:32:29.196Z,59.10
2018-06-18T19:36:34.471Z,60.30
2018-06-18T19:40:39.400Z,60.70
2018-06-18T19:44:45.149Z,58.90
2018-06-18T19:48:57.122Z,59.90
2018-06-18T19:53:01.516Z,55.00
2018-06-18T19:57:06.281Z,58.90
2018-06-18T20:01:12.015Z,58.00
2018-06-18T20:05:16.649Z,58.90
2018-06-18T20:09:21.754Z,61.30
2018-06-18T20:17:35.607Z,60.30
2018-06-18T20:21:43.601Z,62.30
2018-06-18T20:26:07.288Z,62.80
2018-06-18T20:30:13.270Z,63.00
2018-06-18T20:34:19.439Z,62.40
2018-06-18T20:38:24.008Z,63.60
2018-06-18T20:42:28.655Z,58.70
2018-06-18T20:46:33.417Z,61.10
2018-06-18T20:50:38.087Z,63.40
2018-06-18T20:54:42.867Z,64.40
2018-06-18T20:58:48.272Z,67.00
2018-06-18T21:02:53.934Z,66.70
2018-06-18T21:06:58.556Z,68.60
2018-06-18T21:11:04.654Z,68.40
2018-06-18T21:19:12.993Z,70.20
2018-06-18T21:23:18.833Z,71.30
2018-06-18T21:27:23.693Z,71.70
2018-06-18T21:31:28.764Z,72.00
2018-06-18T21:43:41.864Z,74.50
2018-06-18T21:47:46.697Z,75.10
2018-06-18T21:51:52.567Z,75.60
2018-06-18T21:55:57.273Z,76.70
2018-06-18T22:00:02.631Z,77.10
2018-06-18T22:04:08.019Z,77.60
2018-06-18T22:08:14.132Z,77.70
2018-06-18T22:12:18.887Z,78.00
2018-06-18T22:20:28.480Z,78.90
2018-06-18T22:28:40.369Z,80.80
2018-06-18T22:32:44.882Z,81.60
2018-06-18T22:36:49.811Z,80.70
2018-06-18T22:40:54.346Z,81.90
2018-06-18T22:44:59.759Z,82.80
2018-06-18T22:49:05.050Z,82.30
2018-06-18T22:53:10.381Z,83.10
2018-06-18T22:57:15.487Z,83.40
2018-06-18T23:01:20.260Z,84.70
2018-06-18T23:05:27.552Z,84.40
2018-06-18T23:09:33.059Z,84.60
2018-06-18T23:13:38.134Z,85.00
2018-06-18T23:17:43.031Z,85.00
2018-06-18T23:21:47.786Z,85.10
2018-06-18T23:25:53.453Z,84.60
2018-06-18T23:29:58.045Z,84.50
2018-06-18T23:34:03.429Z,85.20
2018-06-18T23:38:08.584Z,86.10
2018-06-18T23:42:13.263Z,86.30
2018-06-18T23:46:18.035Z,86.70
2018-06-18T23:50:22.736Z,88.00
2018-06-18T23:54:28.079Z,86.90
2018-06-18T23:58:32.551Z,86.80
